sensor_id;sensor_type;location;lat;lon;timestamp;pressure;altitude;pressure_sealevel;temperature;humidity
21960;BME280;11144;43.030;25.108;2023-01-31T00:00:28;98745.13;;;0.56;100.00
21960;BME280;11144;43.030;25.108;2023-01-31T00:02:02;98763.31;;;0.59;100.00
21960;BME280;11144;43.030;25.108;2023-01-31T00:03:35;98758.13;;;0.56;100.00
21960;BME280;11144;43.030;25.108;2023-01-31T00:05:08;98754.69;;;0.48;100.00
21960;BME280;11144;43.030;25.108;2023-01-31T00:06:43;98755.59;;;0.44;100.00
21960;BME280;11144;43.030;25.108;2023-01-31T00:08:21;98752.97;;;0.47;100.00
21960;BME280;11144;43.030;25.108;2023-01-31T00:09:55;98759.00;;;0.52;100.00
21960;BME280;11144;43.030;25.108;2023-01-31T00:11:29;98756.41;;;0.55;100.00
21960;BME280;11144;43.030;25.108;2023-01-31T00:13:02;98744.31;;;0.48;100.00
21960;BME280;11144;43.030;25.108;2023-01-31T00:14:36;98761.59;;;0.56;100.00
21960;BME280;11144;43.030;25.108;2023-01-31T00:16:11;98756.34;;;0.61;100.00
21960;BME280;11144;43.030;25.108;2023-01-31T00:17:45;98747.69;;;0.65;100.00
21960;BME280;11144;43.030;25.108;2023-01-31T00:19:18;98739.00;;;0.63;100.00
21960;BME280;11144;43.030;25.108;2023-01-31T00:20:51;98747.69;;;0.62;100.00
21960;BME280;11144;43.030;25.108;2023-01-31T00:22:26;98739.03;;;0.60;100.00
21960;BME280;11144;43.030;25.108;2023-01-31T00:23:59;98745.91;;;0.67;100.00
21960;BME280;11144;43.030;25.108;2023-01-31T00:25:33;98742.41;;;0.71;100.00
21960;BME280;11144;43.030;25.108;2023-01-31T00:27:05;98744.13;;;0.72;100.00
21960;BME280;11144;43.030;25.108;2023-01-31T00:28:39;98742.41;;;0.75;100.00
21960;BME280;11144;43.030;25.108;2023-01-31T00:30:13;98743.22;;;0.79;100.00
21960;BME280;11144;43.030;25.108;2023-01-31T00:31:46;98737.19;;;0.80;100.00
21960;BME280;11144;43.030;25.108;2023-01-31T00:33:21;98735.41;;;0.79;100.00
21960;BME280;11144;43.030;25.108;2023-01-31T00:34:54;98740.63;;;0.80;100.00
21960;BME280;11144;43.030;25.108;2023-01-31T00:36:29;98738.88;;;0.81;100.00
21960;BME280;11144;43.030;25.108;2023-01-31T00:38:04;98742.31;;;0.83;100.00
21960;BME280;11144;43.030;25.108;2023-01-31T00:39:37;98738.81;;;0.87;100.00
21960;BME280;11144;43.030;25.108;2023-01-31T00:41:11;98733.59;;;0.90;100.00
21960;BME280;11144;43.030;25.108;2023-01-31T00:42:44;98731.84;;;0.95;100.00
21960;BME280;11144;43.030;25.108;2023-01-31T00:44:17;98728.38;;;0.96;100.00
21960;BME280;11144;43.030;25.108;2023-01-31T00:45:51;98717.97;;;0.96;100.00
21960;BME280;11144;43.030;25.108;2023-01-31T00:47:23;98736.09;;;1.03;100.00
21960;BME280;11144;43.030;25.108;2023-01-31T00:48:57;98743.03;;;1.06;100.00
21960;BME280;11144;43.030;25.108;2023-01-31T00:50:30;98749.09;;;1.08;100.00
21960;BME280;11144;43.030;25.108;2023-01-31T00:52:02;98760.34;;;1.11;100.00
21960;BME280;11144;43.030;25.108;2023-01-31T00:53:37;98753.38;;;1.15;100.00
21960;BME280;11144;43.030;25.108;2023-01-31T00:55:11;98764.66;;;1.14;100.00
21960;BME280;11144;43.030;25.108;2023-01-31T00:56:45;98759.38;;;1.20;100.00
21960;BME280;11144;43.030;25.108;2023-01-31T00:58:18;98764.50;;;1.35;100.00
21960;BME280;11144;43.030;25.108;2023-01-31T00:59:52;98772.22;;;1.41;100.00
21960;BME280;11144;43.030;25.108;2023-01-31T01:01:27;98763.53;;;1.42;100.00
21960;BME280;11144;43.030;25.108;2023-01-31T01:03:00;98756.50;;;1.53;100.00
21960;BME280;11144;43.030;25.108;2023-01-31T01:04:33;98752.03;;;1.64;100.00
21960;BME280;11144;43.030;25.108;2023-01-31T01:06:08;98752.78;;;1.76;100.00
21960;BME280;11144;43.030;25.108;2023-01-31T01:07:42;98760.53;;;1.84;100.00
21960;BME280;11144;43.030;25.108;2023-01-31T01:09:16;98750.88;;;1.93;100.00
21960;BME280;11144;43.030;25.108;2023-01-31T01:10:51;98750.75;;;2.01;100.00
21960;BME280;11144;43.030;25.108;2023-01-31T01:12:26;98755.03;;;2.08;100.00
21960;BME280;11144;43.030;25.108;2023-01-31T01:13:59;98755.00;;;2.11;100.00
21960;BME280;11144;43.030;25.108;2023-01-31T01:15:36;98758.38;;;2.19;100.00
21960;BME280;11144;43.030;25.108;2023-01-31T01:17:09;98753.16;;;2.20;100.00
21960;BME280;11144;43.030;25.108;2023-01-31T01:18:43;98757.41;;;2.27;100.00
21960;BME280;11144;43.030;25.108;2023-01-31T01:20:17;98745.22;;;2.29;100.00
21960;BME280;11144;43.030;25.108;2023-01-31T01:21:53;98748.63;;;2.34;100.00
21960;BME280;11144;43.030;25.108;2023-01-31T01:23:26;98751.19;;;2.39;100.00
21960;BME280;11144;43.030;25.108;2023-01-31T01:25:00;98752.00;;;2.42;100.00
21960;BME280;11144;43.030;25.108;2023-01-31T01:26:33;98748.53;;;2.42;100.00
21960;BME280;11144;43.030;25.108;2023-01-31T01:28:08;98744.22;;;2.38;100.00
21960;BME280;11144;43.030;25.108;2023-01-31T01:29:41;98734.72;;;2.34;100.00
21960;BME280;11144;43.030;25.108;2023-01-31T01:31:15;98726.91;;;2.34;100.00
21960;BME280;11144;43.030;25.108;2023-01-31T01:32:49;98733.00;;;2.31;100.00
21960;BME280;11144;43.030;25.108;2023-01-31T01:34:22;98724.38;;;2.29;100.00
21960;BME280;11144;43.030;25.108;2023-01-31T01:35:59;98719.16;;;2.28;100.00
21960;BME280;11144;43.030;25.108;2023-01-31T01:37:32;98723.47;;;2.32;100.00
21960;BME280;11144;43.030;25.108;2023-01-31T01:39:08;98708.72;;;2.29;100.00
21960;BME280;11144;43.030;25.108;2023-01-31T01:40:43;98711.34;;;2.29;100.00
21960;BME280;11144;43.030;25.108;2023-01-31T01:42:18;98702.63;;;2.29;100.00
21960;BME280;11144;43.030;25.108;2023-01-31T01:43:53;98707.84;;;2.29;100.00
21960;BME280;11144;43.030;25.108;2023-01-31T01:45:26;98704.31;;;2.33;100.00
21960;BME280;11144;43.030;25.108;2023-01-31T01:47:00;98700.00;;;2.30;100.00
21960;BME280;11144;43.030;25.108;2023-01-31T01:48:33;98697.41;;;2.29;100.00
21960;BME280;11144;43.030;25.108;2023-01-31T01:50:10;98700.91;;;2.28;100.00
21960;BME280;11144;43.030;25.108;2023-01-31T01:51:47;98700.94;;;2.25;100.00
21960;BME280;11144;43.030;25.108;2023-01-31T01:53:23;98701.00;;;2.22;100.00
21960;BME280;11144;43.030;25.108;2023-01-31T01:55:03;98697.50;;;2.23;100.00
21960;BME280;11144;43.030;25.108;2023-01-31T01:56:42;98697.56;;;2.20;100.00
21960;BME280;11144;43.030;25.108;2023-01-31T01:58:20;98699.28;;;2.21;100.00
21960;BME280;11144;43.030;25.108;2023-01-31T02:00:00;98675.06;;;2.11;100.00
21960;BME280;11144;43.030;25.108;2023-01-31T02:01:46;98699.34;;;2.15;100.00
21960;BME280;11144;43.030;25.108;2023-01-31T02:03:20;98687.25;;;2.08;100.00
21960;BME280;11144;43.030;25.108;2023-01-31T02:04:53;98689.09;;;2.01;100.00
21960;BME280;11144;43.030;25.108;2023-01-31T02:06:27;98693.41;;;2.02;100.00
21960;BME280;11144;43.030;25.108;2023-01-31T02:08:01;98696.00;;;2.04;100.00
21960;BME280;11144;43.030;25.108;2023-01-31T02:09:41;98693.38;;;2.05;100.00
21960;BME280;11144;43.030;25.108;2023-01-31T02:11:21;98692.53;;;2.05;100.00
21960;BME280;11144;43.030;25.108;2023-01-31T02:12:56;98692.47;;;2.08;100.00
21960;BME280;11144;43.030;25.108;2023-01-31T02:14:32;98700.25;;;2.11;100.00
21960;BME280;11144;43.030;25.108;2023-01-31T02:16:06;98701.13;;;2.13;100.00
21960;BME280;11144;43.030;25.108;2023-01-31T02:17:39;98705.44;;;2.15;100.00
21960;BME280;11144;43.030;25.108;2023-01-31T02:19:21;98699.31;;;2.18;100.00
21960;BME280;11144;43.030;25.108;2023-01-31T02:23:24;98695.91;;;2.13;100.00
21960;BME280;11144;43.030;25.108;2023-01-31T02:25:46;98701.13;;;2.13;100.00
21960;BME280;11144;43.030;25.108;2023-01-31T02:27:47;98694.28;;;2.03;100.00
21960;BME280;11144;43.030;25.108;2023-01-31T02:29:50;98684.78;;;1.99;100.00
21960;BME280;11144;43.030;25.108;2023-01-31T02:31:58;98689.97;;;2.02;100.00
21960;BME280;11144;43.030;25.108;2023-01-31T02:33:41;98690.72;;;2.10;100.00
21960;BME280;11144;43.030;25.108;2023-01-31T02:35:24;98695.91;;;2.13;100.00
21960;BME280;11144;43.030;25.108;2023-01-31T02:37:08;98695.78;;;2.22;100.00
21960;BME280;11144;43.030;25.108;2023-01-31T02:38:56;98693.97;;;2.27;100.00
21960;BME280;11144;43.030;25.108;2023-01-31T02:40:40;98693.09;;;2.28;100.00
21960;BME280;11144;43.030;25.108;2023-01-31T02:42:19;98702.63;;;2.29;100.00
21960;BME280;11144;43.030;25.108;2023-01-31T02:43:57;98700.88;;;2.31;100.00
21960;BME280;11144;43.030;25.108;2023-01-31T02:45:58;98700.81;;;2.34;100.00
21960;BME280;11144;43.030;25.108;2023-01-31T02:47:43;98704.28;;;2.36;100.00
21960;BME280;11144;43.030;25.108;2023-01-31T02:49:22;98700.75;;;2.40;100.00
21960;BME280;11144;43.030;25.108;2023-01-31T02:51:20;98709.47;;;2.39;100.00
21960;BME280;11144;43.030;25.108;2023-01-31T02:52:59;98701.66;;;2.36;100.00
21960;BME280;11144;43.030;25.108;2023-01-31T02:54:37;98707.75;;;2.36;100.00
21960;BME280;11144;43.030;25.108;2023-01-31T02:56:27;98713.81;;;2.37;100.00
21960;BME280;11144;43.030;25.108;2023-01-31T02:58:05;98710.41;;;2.33;100.00
21960;BME280;11144;43.030;25.108;2023-01-31T02:59:38;98710.50;;;2.26;100.00
21960;BME280;11144;43.030;25.108;2023-01-31T03:01:14;98715.66;;;2.29;100.00
21960;BME280;11144;43.030;25.108;2023-01-31T03:02:50;98700.06;;;2.26;100.00
21960;BME280;11144;43.030;25.108;2023-01-31T03:04:29;98710.38;;;2.35;100.00
21960;BME280;11144;43.030;25.108;2023-01-31T03:08:01;98723.44;;;2.35;100.00
21960;BME280;11144;43.030;25.108;2023-01-31T03:09:44;98725.97;;;2.38;100.00
21960;BME280;11144;43.030;25.108;2023-01-31T03:11:21;98730.28;;;2.42;100.00
21960;BME280;11144;43.030;25.108;2023-01-31T03:13:05;98738.13;;;2.40;100.00
21960;BME280;11144;43.030;25.108;2023-01-31T03:14:46;98716.53;;;2.31;100.00
21960;BME280;11144;43.030;25.108;2023-01-31T03:16:26;98732.09;;;2.34;100.00
21960;BME280;11144;43.030;25.108;2023-01-31T03:18:20;98733.75;;;2.41;100.00
21960;BME280;11144;43.030;25.108;2023-01-31T03:20:03;98738.88;;;2.50;100.00
21960;BME280;11144;43.030;25.108;2023-01-31T03:21:43;98733.53;;;2.56;100.00
21960;BME280;11144;43.030;25.108;2023-01-31T03:23:18;98730.88;;;2.60;100.00
21960;BME280;11144;43.030;25.108;2023-01-31T03:24:53;98728.25;;;2.62;100.00
21960;BME280;11144;43.030;25.108;2023-01-31T03:26:27;98742.00;;;2.73;100.00
21960;BME280;11144;43.030;25.108;2023-01-31T03:28:04;98741.09;;;2.77;100.00
21960;BME280;11144;43.030;25.108;2023-01-31T03:29:40;98747.91;;;2.85;100.00
21960;BME280;11144;43.030;25.108;2023-01-31T03:31:18;98748.69;;;2.92;100.00
21960;BME280;11144;43.030;25.108;2023-01-31T03:32:57;98745.13;;;2.96;100.00
21960;BME280;11144;43.030;25.108;2023-01-31T03:34:31;98753.78;;;3.01;100.00
21960;BME280;11144;43.030;25.108;2023-01-31T03:36:14;98738.00;;;3.07;100.00
21960;BME280;11144;43.030;25.108;2023-01-31T03:37:58;98740.34;;;3.23;100.00
21960;BME280;11144;43.030;25.108;2023-01-31T03:39:37;98733.94;;;3.41;100.00
21960;BME280;11144;43.030;25.108;2023-01-31T03:41:20;98739.91;;;3.50;100.00
21960;BME280;11144;43.030;25.108;2023-01-31T03:42:58;98730.19;;;3.57;100.00
21960;BME280;11144;43.030;25.108;2023-01-31T03:44:41;98729.31;;;3.56;100.00
21960;BME280;11144;43.030;25.108;2023-01-31T03:46:19;98732.72;;;3.62;100.00
21960;BME280;11144;43.030;25.108;2023-01-31T03:47:56;98730.06;;;3.63;100.00
21960;BME280;11144;43.030;25.108;2023-01-31T03:49:32;98743.94;;;3.68;100.00
21960;BME280;11144;43.030;25.108;2023-01-31T03:51:11;98733.44;;;3.71;100.00
21960;BME280;11144;43.030;25.108;2023-01-31T03:52:51;98725.47;;;3.76;100.00
21960;BME280;11144;43.030;25.108;2023-01-31T03:54:30;98724.63;;;3.75;100.00
21960;BME280;11144;43.030;25.108;2023-01-31T03:56:12;98738.47;;;3.80;100.00
21960;BME280;11144;43.030;25.108;2023-01-31T03:57:51;98731.53;;;3.79;100.00
21960;BME280;11144;43.030;25.108;2023-01-31T03:59:28;98726.31;;;3.78;100.00
21960;BME280;11144;43.030;25.108;2023-01-31T04:01:05;98736.63;;;3.85;100.00
21960;BME280;11144;43.030;25.108;2023-01-31T04:02:40;98732.28;;;3.84;100.00
21960;BME280;11144;43.030;25.108;2023-01-31T04:04:20;98731.38;;;3.85;100.00
21960;BME280;11144;43.030;25.108;2023-01-31T04:05:54;98722.59;;;3.89;100.00
21960;BME280;11144;43.030;25.108;2023-01-31T04:07:30;98734.81;;;3.90;100.00
21960;BME280;11144;43.030;25.108;2023-01-31T04:09:07;98729.56;;;3.90;100.00
21960;BME280;11144;43.030;25.108;2023-01-31T04:10:40;98724.34;;;3.90;100.00
21960;BME280;11144;43.030;25.108;2023-01-31T04:12:14;98733.00;;;3.92;100.00
21960;BME280;11144;43.030;25.108;2023-01-31T04:13:48;98733.91;;;3.91;100.00
21960;BME280;11144;43.030;25.108;2023-01-31T04:15:20;98733.97;;;3.87;100.00
21960;BME280;11144;43.030;25.108;2023-01-31T04:16:53;98729.69;;;3.84;100.00
21960;BME280;11144;43.030;25.108;2023-01-31T04:18:27;98734.00;;;3.85;100.00
21960;BME280;11144;43.030;25.108;2023-01-31T04:19:59;98735.78;;;3.85;100.00
21960;BME280;11144;43.030;25.108;2023-01-31T04:21:32;98739.22;;;3.85;100.00
21960;BME280;11144;43.030;25.108;2023-01-31T04:23:07;98741.94;;;3.82;100.00
21960;BME280;11144;43.030;25.108;2023-01-31T04:24:41;98750.59;;;3.84;100.00
21960;BME280;11144;43.030;25.108;2023-01-31T04:26:14;98743.59;;;3.86;100.00
21960;BME280;11144;43.030;25.108;2023-01-31T04:27:47;98750.59;;;3.84;100.00
21960;BME280;11144;43.030;25.108;2023-01-31T04:29:22;98752.38;;;3.82;100.00
21960;BME280;11144;43.030;25.108;2023-01-31T04:30:56;98758.47;;;3.81;100.00
21960;BME280;11144;43.030;25.108;2023-01-31T04:32:29;98759.34;;;3.83;100.00
21960;BME280;11144;43.030;25.108;2023-01-31T04:34:02;98727.34;;;3.69;100.00
21960;BME280;11144;43.030;25.108;2023-01-31T04:35:38;98753.25;;;3.81;100.00
21960;BME280;11144;43.030;25.108;2023-01-31T04:37:12;98759.28;;;3.86;100.00
21960;BME280;11144;43.030;25.108;2023-01-31T04:38:46;98766.16;;;3.90;100.00
21960;BME280;11144;43.030;25.108;2023-01-31T04:40:20;98767.88;;;3.91;100.00
21960;BME280;11144;43.030;25.108;2023-01-31T04:41:53;98780.94;;;3.93;100.00
21960;BME280;11144;43.030;25.108;2023-01-31T04:43:26;98788.81;;;3.91;100.00
21960;BME280;11144;43.030;25.108;2023-01-31T04:44:58;98774.84;;;3.92;100.00
21960;BME280;11144;43.030;25.108;2023-01-31T04:46:32;98768.84;;;3.87;100.00
21960;BME280;11144;43.030;25.108;2023-01-31T04:48:05;98766.16;;;3.90;100.00
21960;BME280;11144;43.030;25.108;2023-01-31T04:49:39;98771.47;;;3.86;100.00
21960;BME280;11144;43.030;25.108;2023-01-31T04:51:12;98778.41;;;3.88;100.00
21960;BME280;11144;43.030;25.108;2023-01-31T04:52:48;98775.75;;;3.90;100.00
21960;BME280;11144;43.030;25.108;2023-01-31T04:54:23;98792.38;;;3.87;100.00
21960;BME280;11144;43.030;25.108;2023-01-31T04:55:56;98781.00;;;3.88;100.00
21960;BME280;11144;43.030;25.108;2023-01-31T04:57:28;98791.50;;;3.87;100.00
21960;BME280;11144;43.030;25.108;2023-01-31T04:59:02;98792.38;;;3.87;100.00
21960;BME280;11144;43.030;25.108;2023-01-31T05:00:35;98813.25;;;3.90;100.00
21960;BME280;11144;43.030;25.108;2023-01-31T05:02:09;98783.56;;;3.91;100.00
21960;BME280;11144;43.030;25.108;2023-01-31T05:03:44;98785.28;;;3.92;100.00
21960;BME280;11144;43.030;25.108;2023-01-31T05:05:17;98796.56;;;3.96;100.00
21960;BME280;11144;43.030;25.108;2023-01-31T05:06:51;98797.41;;;3.96;100.00
21960;BME280;11144;43.030;25.108;2023-01-31T05:08:24;98782.84;;;3.83;100.00
21960;BME280;11144;43.030;25.108;2023-01-31T05:09:58;98803.69;;;3.88;100.00
21960;BME280;11144;43.030;25.108;2023-01-31T05:11:31;98814.94;;;3.91;100.00
21960;BME280;11144;43.030;25.108;2023-01-31T05:13:05;98808.84;;;3.91;100.00
21960;BME280;11144;43.030;25.108;2023-01-31T05:14:38;98815.88;;;3.89;100.00
21960;BME280;11144;43.030;25.108;2023-01-31T05:16:11;98817.59;;;3.90;100.00
21960;BME280;11144;43.030;25.108;2023-01-31T05:17:45;98816.66;;;3.92;100.00
21960;BME280;11144;43.030;25.108;2023-01-31T05:19:22;98818.47;;;3.90;100.00
21960;BME280;11144;43.030;25.108;2023-01-31T05:20:55;98818.47;;;3.90;100.00
21960;BME280;11144;43.030;25.108;2023-01-31T05:22:27;98816.72;;;3.89;100.00
21960;BME280;11144;43.030;25.108;2023-01-31T05:24:00;98815.84;;;3.90;100.00
21960;BME280;11144;43.030;25.108;2023-01-31T05:25:36;98827.13;;;3.92;100.00
21960;BME280;11144;43.030;25.108;2023-01-31T05:27:09;98821.84;;;3.95;100.00
21960;BME280;11144;43.030;25.108;2023-01-31T05:28:43;98820.97;;;3.95;100.00
21960;BME280;11144;43.030;25.108;2023-01-31T05:30:17;98821.88;;;3.94;100.00
21960;BME280;11144;43.030;25.108;2023-01-31T05:31:50;98811.38;;;3.95;100.00
21960;BME280;11144;43.030;25.108;2023-01-31T05:33:24;98814.84;;;3.97;100.00
21960;BME280;11144;43.030;25.108;2023-01-31T05:35:00;98803.53;;;3.97;100.00
21960;BME280;11144;43.030;25.108;2023-01-31T05:36:34;98816.63;;;3.95;100.00
21960;BME280;11144;43.030;25.108;2023-01-31T05:38:07;98823.56;;;3.96;100.00
21960;BME280;11144;43.030;25.108;2023-01-31T05:39:41;98825.34;;;3.96;100.00
21960;BME280;11144;43.030;25.108;2023-01-31T05:41:15;98824.38;;;4.00;100.00
21960;BME280;11144;43.030;25.108;2023-01-31T05:42:53;98825.22;;;4.00;100.00
21960;BME280;11144;43.030;25.108;2023-01-31T05:44:26;98827.84;;;4.00;100.00
21960;BME280;11144;43.030;25.108;2023-01-31T05:46:00;98840.09;;;3.98;100.00
21960;BME280;11144;43.030;25.108;2023-01-31T05:47:33;98837.50;;;3.98;100.00
21960;BME280;11144;43.030;25.108;2023-01-31T05:49:06;98842.69;;;4.00;100.00
21960;BME280;11144;43.030;25.108;2023-01-31T05:50:40;98825.22;;;4.00;100.00
21960;BME280;11144;43.030;25.108;2023-01-31T05:52:13;98843.53;;;4.00;100.00
21960;BME280;11144;43.030;25.108;2023-01-31T05:53:46;98835.69;;;4.00;100.00
21960;BME280;11144;43.030;25.108;2023-01-31T05:55:20;98826.13;;;3.99;100.00
21960;BME280;11144;43.030;25.108;2023-01-31T05:56:55;98834.03;;;3.96;100.00
21960;BME280;11144;43.030;25.108;2023-01-31T05:58:28;98831.38;;;3.98;100.00
21960;BME280;11144;43.030;25.108;2023-01-31T06:00:02;98833.97;;;3.99;100.00
21960;BME280;11144;43.030;25.108;2023-01-31T06:01:42;98833.06;;;4.02;100.00
21960;BME280;11144;43.030;25.108;2023-01-31T06:03:15;98833.97;;;3.99;100.00
21960;BME280;11144;43.030;25.108;2023-01-31T06:04:49;98835.69;;;4.00;100.00
21960;BME280;11144;43.030;25.108;2023-01-31T06:06:22;98821.81;;;3.98;100.00
21960;BME280;11144;43.030;25.108;2023-01-31T06:07:55;98836.63;;;3.98;100.00
21960;BME280;11144;43.030;25.108;2023-01-31T06:09:28;98842.72;;;3.98;100.00
21960;BME280;11144;43.030;25.108;2023-01-31T06:11:02;98844.38;;;4.02;100.00
21960;BME280;11144;43.030;25.108;2023-01-31T06:12:37;98843.50;;;4.02;100.00
21960;BME280;11144;43.030;25.108;2023-01-31T06:14:10;98846.97;;;4.04;100.00
21960;BME280;11144;43.030;25.108;2023-01-31T06:15:44;98847.84;;;4.04;100.00
21960;BME280;11144;43.030;25.108;2023-01-31T06:17:17;98835.59;;;4.06;100.00
21960;BME280;11144;43.030;25.108;2023-01-31T06:18:50;98843.50;;;4.02;100.00
21960;BME280;11144;43.030;25.108;2023-01-31T06:20:23;98849.56;;;4.05;100.00
21960;BME280;11144;43.030;25.108;2023-01-31T06:21:57;98844.28;;;4.08;100.00
21960;BME280;11144;43.030;25.108;2023-01-31T06:23:30;98846.06;;;4.06;100.00
21960;BME280;11144;43.030;25.108;2023-01-31T06:25:06;98858.22;;;4.09;100.00
21960;BME280;11144;43.030;25.108;2023-01-31T06:26:39;98866.03;;;4.10;100.00
21960;BME280;11144;43.030;25.108;2023-01-31T06:28:14;98869.50;;;4.12;100.00
21960;BME280;11144;43.030;25.108;2023-01-31T06:29:47;98866.88;;;4.12;100.00
21960;BME280;11144;43.030;25.108;2023-01-31T06:31:20;98866.00;;;4.12;100.00
21960;BME280;11144;43.030;25.108;2023-01-31T06:32:54;98849.63;;;4.02;100.00
21960;BME280;11144;43.030;25.108;2023-01-31T06:34:27;98853.81;;;4.11;100.00
21960;BME280;11144;43.030;25.108;2023-01-31T06:36:00;98877.34;;;4.12;100.00
21960;BME280;11144;43.030;25.108;2023-01-31T06:37:34;98879.06;;;4.13;100.00
21960;BME280;11144;43.030;25.108;2023-01-31T06:39:07;98870.34;;;4.11;100.00
21960;BME280;11144;43.030;25.108;2023-01-31T06:40:40;98879.97;;;4.12;100.00
21960;BME280;11144;43.030;25.108;2023-01-31T06:42:13;98867.66;;;4.17;100.00
21960;BME280;11144;43.030;25.108;2023-01-31T06:43:48;98861.53;;;4.17;100.00
21960;BME280;11144;43.030;25.108;2023-01-31T06:45:22;98868.53;;;4.16;100.00
21960;BME280;11144;43.030;25.108;2023-01-31T06:46:55;98869.47;;;4.14;100.00
21960;BME280;11144;43.030;25.108;2023-01-31T06:48:28;98879.91;;;4.15;100.00
21960;BME280;11144;43.030;25.108;2023-01-31T06:50:03;98868.59;;;4.13;100.00
21960;BME280;11144;43.030;25.108;2023-01-31T06:51:36;98871.13;;;4.18;100.00
21960;BME280;11144;43.030;25.108;2023-01-31T06:53:09;98881.56;;;4.21;100.00
21960;BME280;11144;43.030;25.108;2023-01-31T06:54:42;98877.22;;;4.18;100.00
21960;BME280;11144;43.030;25.108;2023-01-31T06:56:16;98889.44;;;4.19;100.00
21960;BME280;11144;43.030;25.108;2023-01-31T06:57:49;98878.97;;;4.19;100.00
21960;BME280;11144;43.030;25.108;2023-01-31T06:59:24;98886.81;;;4.19;100.00
21960;BME280;11144;43.030;25.108;2023-01-31T07:01:03;98882.53;;;4.15;100.00
21960;BME280;11144;43.030;25.108;2023-01-31T07:02:36;98882.41;;;4.21;100.00
21960;BME280;11144;43.030;25.108;2023-01-31T07:04:09;98885.97;;;4.17;100.00
21960;BME280;11144;43.030;25.108;2023-01-31T07:05:44;98878.16;;;4.14;100.00
21960;BME280;11144;43.030;25.108;2023-01-31T07:07:17;98891.09;;;4.23;100.00
21960;BME280;11144;43.030;25.108;2023-01-31T07:08:51;98898.03;;;4.24;100.00
21960;BME280;11144;43.030;25.108;2023-01-31T07:10:24;98894.56;;;4.22;100.00
21960;BME280;11144;43.030;25.108;2023-01-31T07:11:58;98892.81;;;4.24;100.00
21960;BME280;11144;43.030;25.108;2023-01-31T07:13:31;98897.16;;;4.24;100.00
21960;BME280;11144;43.030;25.108;2023-01-31T07:15:08;98898.03;;;4.24;100.00
21960;BME280;11144;43.030;25.108;2023-01-31T07:16:41;98899.75;;;4.25;100.00
21960;BME280;11144;43.030;25.108;2023-01-31T07:18:14;98893.72;;;4.23;100.00
21960;BME280;11144;43.030;25.108;2023-01-31T07:19:48;98892.75;;;4.27;100.00
21960;BME280;11144;43.030;25.108;2023-01-31T07:21:21;98895.31;;;4.32;100.00
21960;BME280;11144;43.030;25.108;2023-01-31T07:22:56;98887.41;;;4.33;100.00
21960;BME280;11144;43.030;25.108;2023-01-31T07:24:29;98890.88;;;4.35;100.00
21960;BME280;11144;43.030;25.108;2023-01-31T07:26:03;98900.44;;;4.35;100.00
21960;BME280;11144;43.030;25.108;2023-01-31T07:27:36;98901.28;;;4.38;100.00
21960;BME280;11144;43.030;25.108;2023-01-31T07:29:09;98900.38;;;4.39;100.00
21960;BME280;11144;43.030;25.108;2023-01-31T07:30:44;98902.06;;;4.42;100.00
21960;BME280;11144;43.030;25.108;2023-01-31T07:32:19;98897.81;;;4.36;100.00
21960;BME280;11144;43.030;25.108;2023-01-31T07:33:52;98894.25;;;4.40;100.00
21960;BME280;11144;43.030;25.108;2023-01-31T07:35:26;98889.00;;;4.40;100.00
21960;BME280;11144;43.030;25.108;2023-01-31T07:37:01;98893.44;;;4.38;100.00
21960;BME280;11144;43.030;25.108;2023-01-31T07:38:34;98899.44;;;4.43;100.00
21960;BME280;11144;43.030;25.108;2023-01-31T07:40:08;98880.34;;;4.38;100.00
21960;BME280;11144;43.030;25.108;2023-01-31T07:41:42;98892.47;;;4.42;100.00
21960;BME280;11144;43.030;25.108;2023-01-31T07:43:15;98889.00;;;4.40;100.00
21960;BME280;11144;43.030;25.108;2023-01-31T07:44:49;98902.06;;;4.42;100.00
21960;BME280;11144;43.030;25.108;2023-01-31T07:46:23;98887.06;;;4.51;100.00
21960;BME280;11144;43.030;25.108;2023-01-31T07:47:57;98883.69;;;4.46;100.00
21960;BME280;11144;43.030;25.108;2023-01-31T07:49:30;98902.94;;;4.44;100.00
21960;BME280;11144;43.030;25.108;2023-01-31T07:51:04;98894.16;;;4.46;100.00
21960;BME280;11144;43.030;25.108;2023-01-31T07:52:37;98896.69;;;4.51;100.00
21960;BME280;11144;43.030;25.108;2023-01-31T07:54:11;98907.22;;;4.46;100.00
21960;BME280;11144;43.030;25.108;2023-01-31T07:55:44;98909.81;;;4.48;100.00
21960;BME280;11144;43.030;25.108;2023-01-31T07:57:18;98894.13;;;4.48;100.00
21960;BME280;11144;43.030;25.108;2023-01-31T07:58:52;98898.69;;;4.37;100.00
21960;BME280;11144;43.030;25.108;2023-01-31T08:00:25;98896.88;;;4.39;100.00
21960;BME280;11144;43.030;25.108;2023-01-31T08:02:17;98908.19;;;4.42;100.00
21960;BME280;11144;43.030;25.108;2023-01-31T08:04:10;98902.03;;;4.45;100.00
21960;BME280;11144;43.030;25.108;2023-01-31T08:05:57;98897.81;;;4.36;100.00
21960;BME280;11144;43.030;25.108;2023-01-31T08:07:31;98899.47;;;4.42;100.00
21960;BME280;11144;43.030;25.108;2023-01-31T08:09:04;98901.16;;;4.44;100.00
21960;BME280;11144;43.030;25.108;2023-01-31T08:10:37;98902.75;;;4.51;100.00
21960;BME280;11144;43.030;25.108;2023-01-31T08:12:11;98897.31;;;4.63;100.00
21960;BME280;11144;43.030;25.108;2023-01-31T08:13:44;98888.50;;;4.67;100.00
21960;BME280;11144;43.030;25.108;2023-01-31T08:15:17;98879.69;;;4.71;100.00
21960;BME280;11144;43.030;25.108;2023-01-31T08:16:51;98887.41;;;4.77;100.00
21960;BME280;11144;43.030;25.108;2023-01-31T08:18:25;98889.91;;;4.83;100.00
21960;BME280;11144;43.030;25.108;2023-01-31T08:19:58;98896.75;;;4.90;100.00
21960;BME280;11144;43.030;25.108;2023-01-31T08:21:32;98896.50;;;5.02;100.00
21960;BME280;11144;43.030;25.108;2023-01-31T08:23:05;98894.72;;;5.04;100.00
21960;BME280;11144;43.030;25.108;2023-01-31T08:24:38;98894.72;;;5.04;100.00